Time;durP1;ratioP1;P1;durP2;ratioP2;P2;SDS_P1;SDS_P2;PMS_P1;PMS_P2;Temp;Humidity;BMP_temperature;BMP_pressure;BME280_temperature;BME280_humidity;BME280_pressure;Samples;Min_cycle;Max_cycle;Signal;HPM_P1;HPM_P2
2022/11/02 05:42:15;;;;;;;;;;;20.70;99.90;;;;;;5646629;23;19980;-82
2022/11/02 05:44:41;;;;;;;;;;;20.70;99.90;;;;;;4977167;28;20377;-81
2022/11/02 05:47:08;;;;;;;;;;;20.70;99.90;;;;;;4977444;28;19926;-82
2022/11/02 05:49:34;;;;;;;;;;;20.70;99.90;;;;;;4976312;28;19926;-82
2022/11/02 05:52:01;;;;;;;;;;;20.80;99.90;;;;;;4976621;28;19926;-81
2022/11/02 05:54:28;;;;;;;;;;;20.70;99.90;;;;;;4976982;28;20004;-80
2022/11/02 05:56:54;;;;;;;;;;;20.70;99.90;;;;;;4976975;28;19926;-80
2022/11/02 05:59:22;;;;;;;;;;;20.80;99.90;;;;;;4976931;28;19926;-81
2022/11/02 06:01:49;;;;;;;;;;;20.70;99.90;;;;;;4977166;28;19927;-81
2022/11/02 06:04:15;;;;;;;;;;;20.70;99.90;;;;;;4976947;28;19926;-83
2022/11/02 06:06:42;;;;;;;;;;;20.70;99.90;;;;;;4976756;28;20297;-82
2022/11/02 06:09:09;;;;;;;;;;;20.90;99.90;;;;;;4977277;28;19997;-81
2022/11/02 06:11:35;;;;;;;;;;;20.50;99.90;;;;;;4976765;28;20297;-81
2022/11/02 06:14:03;;;;;;;;;;;20.70;99.90;;;;;;4976476;28;19926;-82
2022/11/02 06:16:31;;;;;;;;;;;20.70;99.90;;;;;;4975739;28;19926;-79
2022/11/02 06:18:57;;;;;;;;;;;20.70;99.90;;;;;;4976306;28;19949;-83
2022/11/02 06:21:24;;;;;;;;;;;20.70;99.90;;;;;;4974662;28;20289;-84
2022/11/02 06:23:50;;;;;;;;;;;20.70;99.90;;;;;;4975467;28;19926;-76
2022/11/02 06:26:17;;;;;;;;;;;20.70;99.90;;;;;;4975372;28;19926;-77
2022/11/02 06:28:44;;;;;;;;;;;20.70;99.90;;;;;;4975605;28;19926;-76
2022/11/02 06:31:10;;;;;;;;;;;20.70;99.90;;;;;;4975459;28;19933;-78
2022/11/02 06:33:38;;;;;;;;;;;20.70;99.90;;;;;;4975310;28;19935;-77
2022/11/02 06:36:05;;;;;;;;;;;20.70;99.90;;;;;;4975230;28;19969;-76
2022/11/02 06:38:32;;;;;;;;;;;20.80;99.90;;;;;;4975219;28;19989;-76
2022/11/02 06:41:00;;;;;;;;;;;20.80;99.90;;;;;;4975390;28;20341;-78
2022/11/02 06:43:27;;;;;;;;;;;20.80;99.90;;;;;;4975146;28;19926;-76
2022/11/02 06:49:03;;;;;;;;;;;20.70;99.90;;;;;;5899350;23;19977;-84
2022/11/02 06:51:31;;;;;;;;;;;20.70;99.90;;;;;;4975653;28;20407;-84
2022/11/02 06:53:58;;;;;;;;;;;20.70;99.90;;;;;;4975670;28;20006;-84
2022/11/02 11:20:31;;;;;;;;;;;20.60;99.90;;;;;;5481856;23;19984;-89
2022/11/02 11:23:08;;;;;;;;;;;20.60;99.90;;;;;;4980065;28;19930;-89
2022/11/02 11:25:35;;;;;;;;;;;20.60;99.90;;;;;;4978410;28;20385;-89
2022/11/02 11:28:01;;;;;;;;;;;20.50;99.90;;;;;;4978894;28;19926;-88
2022/11/02 11:30:29;;;;;;;;;;;20.20;99.90;;;;;;4978818;28;19930;-88
2022/11/02 11:32:57;;;;;;;;;;;20.60;99.90;;;;;;4979262;28;19932;-88
2022/11/02 11:35:28;;;;;;;;;;;20.70;99.90;;;;;;4978478;28;19926;-89
2022/11/02 11:37:56;;;;;;;;;;;19.60;99.90;;;;;;4981370;28;19926;-88
2022/11/02 11:40:24;;;;;;;;;;;20.60;99.90;;;;;;4985535;28;19926;-88
2022/11/02 11:42:52;;;;;;;;;;;20.60;99.90;;;;;;4981151;28;19930;-87
2022/11/02 11:45:21;;;;;;;;;;;20.60;99.90;;;;;;4983581;28;20405;-87
2022/11/02 11:47:52;;;;;;;;;;;20.70;99.90;;;;;;4985834;28;19972;-87
2022/11/02 11:50:19;;;;;;;;;;;20.70;99.90;;;;;;4984690;28;19934;-87
2022/11/02 11:52:48;;;;;;;;;;;20.70;99.90;;;;;;4984908;28;20448;-87
2022/11/02 11:55:23;;;;;;;;;;;20.80;99.90;;;;;;4982375;28;20021;-87
2022/11/02 11:58:07;;;;;;;;;;;20.80;99.90;;;;;;4979219;28;19926;-88
2022/11/02 12:00:34;;;;;;;;;;;20.80;99.90;;;;;;4979605;28;20298;-85
2022/11/02 12:03:04;;;;;;;;;;;20.80;99.90;;;;;;4978227;28;20016;-87
2022/11/02 12:05:32;;;;;;;;;;;20.80;99.90;;;;;;4978739;28;20068;-87
2022/11/02 12:08:22;;;;;;;;;;;20.80;99.90;;;;;;4979115;28;20335;-86
2022/11/02 12:10:58;;;;;;;;;;;20.90;99.90;;;;;;4963829;28;19926;-87
2022/11/02 12:13:37;;;;;;;;;;;21.20;99.90;;;;;;4980088;28;19930;-86
2022/11/02 12:16:12;;;;;;;;;;;20.90;99.90;;;;;;4978043;28;19926;-87
2022/11/02 12:18:51;;;;;;;;;;;21.00;99.90;;;;;;4978321;28;19930;-87
2022/11/02 12:21:23;;;;;;;;;;;20.90;99.90;;;;;;4978172;28;19926;-85
2022/11/02 12:24:03;;;;;;;;;;;20.90;99.90;;;;;;4983674;28;19933;-86
2022/11/02 12:26:37;;;;;;;;;;;20.90;99.90;;;;;;4984423;28;19927;-86
2022/11/02 12:29:11;;;;;;;;;;;21.00;99.90;;;;;;4984610;28;19926;-86
2022/11/02 12:31:41;;;;;;;;;;;20.90;99.90;;;;;;4984548;28;20032;-86
2022/11/02 12:34:26;;;;;;;;;;;21.00;99.90;;;;;;4986967;28;19926;-86
2022/11/02 12:36:59;;;;;;;;;;;20.90;99.90;;;;;;4986836;28;20016;-86
2022/11/02 12:39:29;;;;;;;;;;;20.90;99.90;;;;;;4981983;28;19930;-87
2022/11/02 12:42:03;;;;;;;;;;;20.90;99.90;;;;;;4977595;28;19933;-86
2022/11/02 12:44:37;;;;;;;;;;;20.70;99.90;;;;;;4977956;28;20346;-86
2022/11/02 12:47:08;;;;;;;;;;;21.00;99.90;;;;;;4978050;28;19938;-88
2022/11/02 12:49:39;;;;;;;;;;;21.10;99.90;;;;;;4977526;28;20293;-88
2022/11/02 12:52:12;;;;;;;;;;;21.00;99.90;;;;;;4979769;28;19934;-85
2022/11/02 12:54:42;;;;;;;;;;;21.00;99.90;;;;;;4979800;28;19949;-84
2022/11/02 12:57:12;;;;;;;;;;;20.90;99.90;;;;;;4977752;28;19927;-86
2022/11/02 14:30:42;;;;;;;;;;;20.80;99.90;;;;;;5337775;23;20365;-83
2022/11/02 14:33:15;;;;;;;;;;;20.80;99.90;;;;;;4977081;28;19926;-81
2022/11/02 14:35:46;;;;;;;;;;;20.80;99.90;;;;;;4981115;28;19926;-83
2022/11/02 14:38:24;;;;;;;;;;;20.80;99.90;;;;;;4983066;28;19933;-81
2022/11/02 14:40:53;;;;;;;;;;;20.80;99.90;;;;;;4983876;28;19926;-83
2022/11/02 14:43:44;;;;;;;;;;;20.80;99.90;;;;;;4987252;28;19926;-81
2022/11/02 14:46:18;;;;;;;;;;;20.80;99.90;;;;;;4973388;28;19933;-81
2022/11/02 14:48:47;;;;;;;;;;;20.80;99.90;;;;;;4988727;28;19927;-83
2022/11/02 14:51:16;;;;;;;;;;;20.80;99.90;;;;;;4985298;28;19950;-81
2022/11/02 14:53:43;;;;;;;;;;;20.70;99.90;;;;;;4986667;28;19932;-81
2022/11/02 14:56:11;;;;;;;;;;;20.80;99.90;;;;;;4988730;28;19981;-81
2022/11/02 14:58:39;;;;;;;;;;;20.80;99.90;;;;;;4987898;28;19954;-81
2022/11/02 15:01:12;;;;;;;;;;;20.80;99.90;;;;;;4987489;28;20017;-81
2022/11/02 15:03:41;;;;;;;;;;;20.80;99.90;;;;;;4987844;28;20296;-81
2022/11/02 15:06:16;;;;;;;;;;;20.80;99.90;;;;;;4987285;28;19937;-80
2022/11/02 15:08:49;;;;;;;;;;;20.80;99.90;;;;;;4987199;28;19926;-82
2022/11/02 15:11:34;;;;;;;;;;;20.80;99.90;;;;;;4984584;28;20369;-82
2022/11/02 15:14:01;;;;;;;;;;;20.80;99.90;;;;;;4987555;28;19926;-81
2022/11/02 15:16:39;;;;;;;;;;;20.80;99.90;;;;;;4987331;28;19981;-80
2022/11/02 15:19:24;;;;;;;;;;;20.80;99.90;;;;;;4986982;28;19961;-80
2022/11/02 15:21:53;;;;;;;;;;;20.80;99.90;;;;;;4990100;28;19926;-80
2022/11/02 15:24:30;;;;;;;;;;;20.80;99.90;;;;;;4989362;28;19926;-80
2022/11/02 15:26:58;;;;;;;;;;;20.90;99.90;;;;;;4988318;28;19926;-80
2022/11/02 15:29:34;;;;;;;;;;;20.80;99.90;;;;;;4987528;28;19926;-81
2022/11/02 15:32:01;;;;;;;;;;;20.90;99.90;;;;;;4986554;28;19930;-81
2022/11/02 15:34:32;;;;;;;;;;;20.90;99.90;;;;;;4987624;28;19936;-83
2022/11/02 15:37:01;;;;;;;;;;;20.90;99.90;;;;;;4987658;28;19981;-83
2022/11/02 15:39:28;;;;;;;;;;;20.90;99.90;;;;;;4987050;28;19950;-83
2022/11/02 15:42:01;;;;;;;;;;;20.90;99.90;;;;;;4985741;28;20385;-83
2022/11/02 15:44:45;;;;;;;;;;;20.90;99.90;;;;;;4986055;28;19994;-83
2022/11/02 15:47:14;;;;;;;;;;;20.90;99.90;;;;;;4986210;28;19926;-83
2022/11/02 15:49:55;;;;;;;;;;;20.90;99.90;;;;;;4987281;28;19926;-84
2022/11/02 15:52:41;;;;;;;;;;;20.90;99.90;;;;;;4986472;28;19930;-83
2022/11/02 15:55:15;;;;;;;;;;;20.90;99.90;;;;;;4986060;28;19949;-82
2022/11/02 15:57:47;;;;;;;;;;;20.90;99.90;;;;;;4983272;28;19926;-83
2022/11/02 16:00:16;;;;;;;;;;;20.90;99.90;;;;;;4983168;28;19926;-83
2022/11/02 16:02:45;;;;;;;;;;;20.90;99.90;;;;;;4985611;28;20337;-84
2022/11/02 16:05:20;;;;;;;;;;;20.90;99.90;;;;;;4986231;28;19927;-84
2022/11/02 16:07:48;;;;;;;;;;;20.90;99.90;;;;;;4983183;28;19977;-84
2022/11/02 16:10:22;;;;;;;;;;;20.90;99.90;;;;;;4983079;28;19926;-83
2022/11/02 16:12:56;;;;;;;;;;;20.90;99.90;;;;;;4983431;28;19927;-83
2022/11/02 16:15:22;;;;;;;;;;;21.00;99.90;;;;;;4983809;28;20021;-84
2022/11/02 16:17:49;;;;;;;;;;;20.90;99.90;;;;;;4983395;28;19938;-83
2022/11/02 16:20:18;;;;;;;;;;;20.90;99.90;;;;;;4984146;28;19977;-83
2022/11/02 16:22:48;;;;;;;;;;;20.90;99.90;;;;;;4985239;28;19926;-83
2022/11/02 16:25:17;;;;;;;;;;;20.90;99.90;;;;;;4981669;28;19926;-88
2022/11/02 16:27:44;;;;;;;;;;;20.90;99.90;;;;;;4979311;28;19926;-86
2022/11/02 16:30:17;;;;;;;;;;;20.90;99.90;;;;;;4980724;28;19934;-86
2022/11/02 16:32:44;;;;;;;;;;;20.90;99.90;;;;;;4979538;28;19933;-86
2022/11/02 16:35:12;;;;;;;;;;;20.90;99.90;;;;;;4978960;28;19926;-85
2022/11/02 16:37:39;;;;;;;;;;;20.70;99.90;;;;;;4978971;28;19930;-86
2022/11/02 16:40:12;;;;;;;;;;;22.70;99.90;;;;;;4978884;28;20289;-86
2022/11/02 16:42:38;;;;;;;;;;;21.00;99.90;;;;;;4979799;28;19930;-87
2022/11/02 16:45:06;;;;;;;;;;;21.00;99.90;;;;;;4979350;28;19927;-86
2022/11/02 16:47:35;;;;;;;;;;;21.00;99.90;;;;;;4979460;28;20382;-85
2022/11/02 16:50:02;;;;;;;;;;;21.00;99.90;;;;;;4978850;28;20399;-83
2022/11/02 16:52:31;;;;;;;;;;;21.00;99.90;;;;;;4979623;28;19930;-86
2022/11/02 16:54:57;;;;;;;;;;;21.10;99.90;;;;;;4978083;28;19933;-87
2022/11/02 16:57:26;;;;;;;;;;;21.10;99.90;;;;;;4979835;28;19926;-86
2022/11/02 16:59:54;;;;;;;;;;;21.10;99.90;;;;;;4981826;28;19927;-86
2022/11/02 17:02:25;;;;;;;;;;;21.10;99.90;;;;;;4981511;28;19926;-83
2022/11/02 17:04:55;;;;;;;;;;;21.10;99.90;;;;;;4979002;28;19926;-84
2022/11/02 17:07:23;;;;;;;;;;;21.10;99.90;;;;;;4980539;28;19927;-87
2022/11/02 17:09:51;;;;;;;;;;;21.20;99.90;;;;;;4979499;28;19926;-85
2022/11/02 17:12:18;;;;;;;;;;;21.30;99.90;;;;;;4982839;28;20408;-84
2022/11/02 17:14:47;;;;;;;;;;;21.20;99.90;;;;;;4980652;28;19926;-88
2022/11/02 17:17:30;;;;;;;;;;;21.20;99.90;;;;;;4982412;28;19933;-86
2022/11/02 17:20:05;;;;;;;;;;;21.20;99.90;;;;;;4984443;28;19926;-87
2022/11/02 17:22:35;;;;;;;;;;;21.20;99.90;;;;;;4981697;28;19974;-87
2022/11/02 17:25:04;;;;;;;;;;;21.20;99.90;;;;;;4979887;28;19949;-86
2022/11/02 17:27:32;;;;;;;;;;;21.20;99.90;;;;;;4977884;28;19933;-86
2022/11/02 17:30:00;;;;;;;;;;;21.20;99.90;;;;;;4981877;28;19927;-86
2022/11/02 17:32:27;;;;;;;;;;;21.30;99.90;;;;;;4988347;28;19930;-86
2022/11/02 17:34:54;;;;;;;;;;;21.30;99.90;;;;;;4999924;28;19926;-87
2022/11/02 17:37:22;;;;;;;;;;;21.30;99.90;;;;;;4998429;28;19926;-87
2022/11/02 17:39:49;;;;;;;;;;;21.30;99.90;;;;;;4988837;28;19926;-88
2022/11/02 17:45:15;;;;;;;;;;;21.30;99.90;;;;;;4977526;28;19941;-86
2022/11/02 17:47:43;;;;;;;;;;;21.30;99.90;;;;;;4978505;28;19926;-86
2022/11/02 17:50:09;;;;;;;;;;;21.30;99.90;;;;;;4977923;28;19930;-87
2022/11/02 17:52:36;;;;;;;;;;;21.40;99.90;;;;;;4976432;28;19926;-87
2022/11/02 17:55:05;;;;;;;;;;;21.30;99.90;;;;;;4975857;28;21267;-87
2022/11/02 17:57:32;;;;;;;;;;;21.30;99.90;;;;;;4977110;28;20348;-87
2022/11/02 17:59:58;;;;;;;;;;;21.30;99.90;;;;;;4976857;28;19933;-87
2022/11/02 18:02:25;;;;;;;;;;;20.90;99.90;;;;;;4977122;28;19926;-87
2022/11/02 18:04:53;;;;;;;;;;;21.30;99.90;;;;;;4977936;28;19932;-87
2022/11/02 18:22:51;;;;;;;;;;;21.20;99.90;;;;;;4956304;29;20330;-87
2022/11/02 18:25:18;;;;;;;;;;;21.20;99.90;;;;;;4957901;28;19926;-87
2022/11/02 18:27:45;;;;;;;;;;;21.20;99.90;;;;;;4958288;28;19938;-87
2022/11/02 18:30:13;;;;;;;;;;;21.20;99.90;;;;;;4957171;28;19927;-87
2022/11/02 18:32:41;;;;;;;;;;;21.20;99.90;;;;;;4956592;28;20018;-86
2022/11/02 18:35:11;;;;;;;;;;;21.60;99.90;;;;;;4958985;28;20425;-84
2022/11/02 18:37:38;;;;;;;;;;;20.70;99.90;;;;;;4957809;28;19927;-88
2022/11/02 18:40:07;;;;;;;;;;;21.20;99.90;;;;;;4956317;28;19938;-89
2022/11/02 18:42:35;;;;;;;;;;;21.20;99.90;;;;;;4956123;28;19960;-89
2022/11/02 18:45:01;;;;;;;;;;;21.60;99.90;;;;;;4956155;28;19934;-90
2022/11/02 18:47:28;;;;;;;;;;;20.40;99.90;;;;;;4956280;28;19927;-90
2022/11/02 18:49:55;;;;;;;;;;;21.70;99.90;;;;;;4955955;28;19931;-89
2022/11/02 18:52:21;;;;;;;;;;;21.10;99.90;;;;;;4956020;28;19927;-90
2022/11/02 18:54:48;;;;;;;;;;;20.90;99.90;;;;;;4955920;28;19933;-90
2022/11/02 18:57:16;;;;;;;;;;;21.10;99.90;;;;;;4955986;28;19938;-90
2022/11/02 18:59:42;;;;;;;;;;;21.10;99.90;;;;;;4956006;28;19926;-89
2022/11/02 19:02:10;;;;;;;;;;;20.90;99.90;;;;;;4955907;28;19926;-89
2022/11/02 19:04:36;;;;;;;;;;;22.00;99.90;;;;;;4955912;28;20294;-89
2022/11/02 19:09:47;;;;;;;;;;;21.50;99.90;;;;;;4955709;28;19977;-90
2022/11/02 19:12:16;;;;;;;;;;;21.00;99.90;;;;;;4955811;28;19926;-89
2022/11/02 19:14:44;;;;;;;;;;;20.80;99.90;;;;;;4955836;28;19933;-90
2022/11/02 19:17:12;;;;;;;;;;;21.30;99.90;;;;;;4955700;28;20355;-89
2022/11/02 19:19:39;;;;;;;;;;;20.90;99.90;;;;;;4955743;28;19926;-89
2022/11/02 19:22:06;;;;;;;;;;;21.10;99.90;;;;;;4955762;28;19974;-89
2022/11/02 19:24:33;;;;;;;;;;;20.80;99.90;;;;;;4955687;28;19927;-89
2022/11/02 19:27:00;;;;;;;;;;;20.70;99.90;;;;;;4955730;28;19934;-88
2022/11/02 19:29:28;;;;;;;;;;;21.40;99.90;;;;;;4959267;28;19931;-88
2022/11/02 19:31:54;;;;;;;;;;;20.70;99.90;;;;;;4959205;28;19946;-89
2022/11/02 19:34:21;;;;;;;;;;;20.20;99.90;;;;;;4959239;28;20263;-88
2022/11/02 19:36:48;;;;;;;;;;;20.80;99.90;;;;;;4959204;28;19927;-88
2022/11/02 19:39:14;;;;;;;;;;;20.80;99.90;;;;;;4959109;28;19930;-88
2022/11/02 19:41:41;;;;;;;;;;;20.90;99.90;;;;;;4958785;28;19926;-89
2022/11/02 19:44:08;;;;;;;;;;;21.10;99.90;;;;;;4959326;28;19933;-87
2022/11/02 19:46:36;;;;;;;;;;;21.00;99.90;;;;;;4959892;28;19931;-86
2022/11/02 19:49:02;;;;;;;;;;;20.90;99.90;;;;;;4960002;28;19934;-87
2022/11/02 19:51:29;;;;;;;;;;;20.80;99.90;;;;;;4959054;28;20263;-89
2022/11/02 19:53:58;;;;;;;;;;;20.90;99.90;;;;;;4958861;28;19933;-89
2022/11/02 19:56:26;;;;;;;;;;;20.70;99.90;;;;;;4958896;28;20029;-89
2022/11/02 19:58:53;;;;;;;;;;;20.90;99.90;;;;;;4958737;28;19927;-88
2022/11/02 20:01:20;;;;;;;;;;;20.90;99.90;;;;;;4958776;28;19927;-88
2022/11/02 20:03:48;;;;;;;;;;;20.80;99.90;;;;;;4959251;28;19934;-89
2022/11/02 20:06:16;;;;;;;;;;;20.80;99.90;;;;;;4958722;28;19930;-88
2022/11/02 20:08:42;;;;;;;;;;;20.90;99.90;;;;;;4958619;28;19934;-88
2022/11/02 20:11:10;;;;;;;;;;;21.50;99.90;;;;;;4958383;28;19930;-89
2022/11/02 20:13:38;;;;;;;;;;;20.80;99.90;;;;;;4958454;28;19926;-88
2022/11/02 20:16:05;;;;;;;;;;;20.60;99.90;;;;;;4958621;28;19930;-89
2022/11/02 20:18:33;;;;;;;;;;;20.80;99.90;;;;;;4958618;28;19933;-89
2022/11/02 20:21:04;;;;;;;;;;;20.90;99.90;;;;;;4958906;28;19927;-87
2022/11/02 20:23:31;;;;;;;;;;;20.80;99.90;;;;;;4959352;28;19926;-86
2022/11/02 20:26:02;;;;;;;;;;;20.90;99.90;;;;;;4959111;28;19933;-89
2022/11/02 20:28:29;;;;;;;;;;;20.80;99.90;;;;;;4958699;28;19926;-89
2022/11/02 20:30:55;;;;;;;;;;;20.70;99.90;;;;;;4958422;28;19930;-90
2022/11/02 20:33:22;;;;;;;;;;;20.70;99.90;;;;;;4958198;28;19933;-90
2022/11/02 20:35:49;;;;;;;;;;;20.50;99.90;;;;;;4958440;28;19927;-90
2022/11/02 20:38:17;;;;;;;;;;;20.20;99.90;;;;;;4957942;28;19938;-90
2022/11/02 20:40:43;;;;;;;;;;;21.80;99.90;;;;;;4957136;28;19973;-89
2022/11/02 20:43:10;;;;;;;;;;;20.80;99.90;;;;;;4958068;28;19926;-89
2022/11/02 20:45:37;;;;;;;;;;;21.90;99.90;;;;;;4958043;28;19927;-89
2022/11/02 20:48:03;;;;;;;;;;;20.80;99.90;;;;;;4957943;28;19926;-89
2022/11/02 20:50:30;;;;;;;;;;;20.80;99.90;;;;;;4957968;28;20367;-89
2022/11/02 20:52:57;;;;;;;;;;;21.40;99.90;;;;;;4957744;28;19926;-89
2022/11/02 20:55:26;;;;;;;;;;;21.00;99.90;;;;;;4957846;28;19934;-89
2022/11/02 20:57:52;;;;;;;;;;;21.40;99.90;;;;;;4958008;28;19926;-89
2022/11/02 21:00:19;;;;;;;;;;;22.60;99.90;;;;;;4957762;28;20025;-89
2022/11/02 21:02:46;;;;;;;;;;;20.80;99.90;;;;;;4957733;28;19938;-89
2022/11/02 21:05:12;;;;;;;;;;;21.50;99.90;;;;;;4957655;28;19933;-89
2022/11/02 21:07:40;;;;;;;;;;;21.30;99.90;;;;;;4957498;28;19973;-89
2022/11/02 21:10:07;;;;;;;;;;;19.80;99.90;;;;;;4957628;28;19934;-89
2022/11/02 21:15:19;;;;;;;;;;;21.30;99.90;;;;;;4957496;29;19934;-89
2022/11/02 21:17:45;;;;;;;;;;;20.50;99.90;;;;;;4957358;28;19930;-90
2022/11/02 21:20:13;;;;;;;;;;;21.20;99.90;;;;;;4956945;28;20387;-90
2022/11/02 21:22:40;;;;;;;;;;;21.20;99.90;;;;;;4956912;28;20021;-89
2022/11/02 21:25:06;;;;;;;;;;;20.80;99.90;;;;;;4957265;28;19926;-90
2022/11/02 21:27:34;;;;;;;;;;;20.80;99.90;;;;;;4957178;28;20267;-90
2022/11/02 21:30:01;;;;;;;;;;;20.70;99.90;;;;;;4956803;28;20374;-91
2022/11/02 21:32:28;;;;;;;;;;;20.80;99.90;;;;;;4957106;28;19930;-90
2022/11/02 21:34:54;;;;;;;;;;;20.90;99.90;;;;;;4957053;28;19927;-90
2022/11/02 21:37:21;;;;;;;;;;;21.10;99.90;;;;;;4956989;28;19930;-91
2022/11/02 21:39:47;;;;;;;;;;;20.70;99.90;;;;;;4957149;28;19927;-91
2022/11/02 21:42:14;;;;;;;;;;;20.80;99.90;;;;;;4956694;28;19933;-90
2022/11/02 21:44:42;;;;;;;;;;;20.90;99.90;;;;;;4956971;28;19933;-91
2022/11/02 21:47:09;;;;;;;;;;;20.80;99.90;;;;;;4956906;28;20294;-91
2022/11/02 21:49:35;;;;;;;;;;;21.80;99.90;;;;;;4956756;28;19933;-90
2022/11/02 21:52:02;;;;;;;;;;;20.80;99.90;;;;;;4956320;28;19927;-90
2022/11/02 21:54:28;;;;;;;;;;;21.80;99.90;;;;;;4956827;28;19926;-90
2022/11/02 21:56:56;;;;;;;;;;;21.70;99.90;;;;;;4956697;28;19933;-89
2022/11/02 21:59:23;;;;;;;;;;;20.60;99.90;;;;;;4956597;28;19927;-89
2022/11/02 22:01:50;;;;;;;;;;;19.70;99.90;;;;;;4956603;28;19933;-89
2022/11/02 22:04:20;;;;;;;;;;;21.60;99.90;;;;;;4956513;28;20382;-90
2022/11/02 22:06:47;;;;;;;;;;;21.30;99.90;;;;;;4956510;28;20330;-89
2022/11/02 22:09:14;;;;;;;;;;;22.10;99.90;;;;;;4956431;28;19926;-89
2022/11/02 22:11:41;;;;;;;;;;;21.80;99.90;;;;;;4956461;28;19926;-89
2022/11/02 22:14:07;;;;;;;;;;;19.90;99.90;;;;;;4956585;28;19926;-89
2022/11/02 22:16:34;;;;;;;;;;;20.80;99.90;;;;;;4956139;28;19923;-89
2022/11/02 22:19:03;;;;;;;;;;;21.10;99.90;;;;;;4956576;28;20263;-89
2022/11/02 22:21:31;;;;;;;;;;;21.30;99.90;;;;;;4956323;28;19926;-89
2022/11/02 22:23:58;;;;;;;;;;;21.20;99.90;;;;;;4956431;28;19926;-89
2022/11/02 22:26:25;;;;;;;;;;;20.80;99.90;;;;;;4956379;28;19948;-90
2022/11/02 22:28:52;;;;;;;;;;;21.10;99.90;;;;;;4956564;28;19933;-90
2022/11/02 22:31:20;;;;;;;;;;;20.80;99.90;;;;;;4956341;28;20278;-90
2022/11/02 22:33:48;;;;;;;;;;;20.60;99.90;;;;;;4956526;28;19937;-87
2022/11/02 22:36:18;;;;;;;;;;;20.80;99.90;;;;;;4958122;28;19927;-87
